Time;durP1;ratioP1;P1;durP2;ratioP2;P2;SDS_P1;SDS_P2;PMS_P1;PMS_P2;Temp;Humidity;BMP_temperature;BMP_pressure;BME280_temperature;BME280_humidity;BME280_pressure;Samples;Min_cycle;Max_cycle;Signal;HPM_P1;HPM_P2
2023/03/29 00:00:22;;;;;;;3.47;1.15;;;6.50;66.90;;;;;;5024299;28;20029;-74
2023/03/29 00:02:48;;;;;;;3.08;1.10;;;6.70;66.80;;;;;;5025857;28;20021;-74
2023/03/29 00:05:16;;;;;;;2.08;1.33;;;6.70;66.90;;;;;;5031769;28;20584;-74
2023/03/29 00:07:42;;;;;;;2.95;1.25;;;6.70;67.10;;;;;;5025448;28;20128;-75
2023/03/29 00:10:11;;;;;;;3.10;1.20;;;6.70;66.30;;;;;;5022316;28;20100;-75
2023/03/29 00:12:39;;;;;;;6.07;1.25;;;6.80;65.80;;;;;;5024159;28;20037;-75
2023/03/29 00:15:06;;;;;;;3.10;1.00;;;6.80;66.30;;;;;;5031076;28;20029;-74
2023/03/29 00:17:32;;;;;;;3.63;1.27;;;6.80;66.30;;;;;;5033994;28;20407;-74
2023/03/29 00:19:57;;;;;;;2.78;1.20;;;6.70;66.70;;;;;;5022150;28;20025;-74
2023/03/29 00:22:24;;;;;;;2.80;1.20;;;6.60;66.70;;;;;;5036340;28;20111;-74
2023/03/29 00:24:53;;;;;;;3.67;1.30;;;6.80;65.30;;;;;;5020906;28;20111;-74
2023/03/29 00:27:20;;;;;;;3.78;1.45;;;7.00;65.30;;;;;;5016777;28;20037;-75
2023/03/29 00:29:46;;;;;;;2.75;1.35;;;6.80;65.50;;;;;;5012742;28;20026;-75
2023/03/29 00:32:12;;;;;;;3.50;1.55;;;6.80;66.80;;;;;;5024750;28;20033;-74
2023/03/29 00:34:41;;;;;;;3.15;1.50;;;6.70;66.40;;;;;;5023778;28;20033;-74
2023/03/29 00:37:08;;;;;;;4.32;1.50;;;6.70;66.50;;;;;;5034901;28;20117;-74
2023/03/29 00:39:34;;;;;;;3.55;1.38;;;6.60;66.80;;;;;;5024779;28;20530;-74
2023/03/29 00:42:00;;;;;;;2.55;1.40;;;6.40;67.60;;;;;;5024173;28;20426;-74
2023/03/29 00:45:03;;;;;;;2.95;1.05;;;6.30;67.50;;;;;;5024302;28;20029;-74
2023/03/29 00:47:38;;;;;;;4.03;1.35;;;6.20;68.10;;;;;;5025789;28;20455;-74
2023/03/29 00:50:15;;;;;;;4.82;1.52;;;6.10;68.10;;;;;;5021003;28;20057;-75
2023/03/29 00:52:46;;;;;;;3.75;1.35;;;6.20;67.40;;;;;;5026762;28;20528;-75
2023/03/29 00:55:16;;;;;;;2.90;1.40;;;6.20;67.60;;;;;;5034846;28;20139;-74
2023/03/29 00:57:45;;;;;;;4.63;1.42;;;6.30;66.90;;;;;;5031701;28;20029;-74
2023/03/29 01:00:16;;;;;;;3.17;1.42;;;6.30;67.20;;;;;;5027556;28;20490;-74
2023/03/29 01:02:45;;;;;;;3.63;1.60;;;6.30;67.40;;;;;;5030989;28;20786;-75
2023/03/29 01:05:36;;;;;;;3.25;1.25;;;6.10;66.50;;;;;;5023964;28;20028;-75
2023/03/29 01:08:10;;;;;;;2.83;1.20;;;6.10;68.30;;;;;;5036151;28;20487;-75
2023/03/29 01:10:48;;;;;;;2.95;1.33;;;5.90;69.10;;;;;;5017331;28;20040;-74
2023/03/29 01:13:25;;;;;;;3.33;1.58;;;5.60;69.40;;;;;;5018052;28;20029;-75
2023/03/29 01:15:53;;;;;;;5.75;1.42;;;5.70;69.30;;;;;;5022075;28;20045;-74
2023/03/29 01:18:22;;;;;;;2.88;1.23;;;5.50;69.80;;;;;;5028790;28;20037;-75
2023/03/29 01:21:06;;;;;;;3.17;1.40;;;5.40;70.10;;;;;;5037207;28;20382;-74
2023/03/29 01:23:42;;;;;;;2.40;1.20;;;5.50;69.40;;;;;;5026778;28;20041;-74
2023/03/29 01:26:19;;;;;;;5.53;1.73;;;5.50;69.10;;;;;;5028824;28;20060;-74
2023/03/29 01:28:52;;;;;;;2.47;1.20;;;5.80;68.60;;;;;;5027634;28;20052;-74
2023/03/29 01:31:46;;;;;;;4.25;1.58;;;6.10;67.20;;;;;;5029396;28;20441;-74
2023/03/29 01:34:30;;;;;;;4.35;1.60;;;6.30;66.70;;;;;;5022158;28;20048;-74
2023/03/29 01:37:40;;;;;;;3.72;1.27;;;6.10;68.30;;;;;;5035890;28;20475;-74
2023/03/29 01:40:06;;;;;;;4.63;1.58;;;5.90;68.80;;;;;;4939174;28;20040;-74
2023/03/29 01:42:58;;;;;;;2.63;1.52;;;6.10;68.00;;;;;;5010713;28;20192;-75
2023/03/29 01:45:49;;;;;;;2.97;1.30;;;6.30;68.20;;;;;;5021604;28;20396;-76
2023/03/29 01:48:23;;;;;;;3.30;1.20;;;6.20;68.30;;;;;;5018683;28;20051;-74
2023/03/29 01:51:07;;;;;;;3.13;1.40;;;5.90;69.30;;;;;;5023165;28;20022;-74
2023/03/29 01:53:42;;;;;;;4.10;1.27;;;5.80;70.00;;;;;;5026859;28;20051;-74
2023/03/29 01:56:15;;;;;;;5.80;1.40;;;5.50;70.50;;;;;;5032722;28;20029;-74
2023/03/29 01:58:44;;;;;;;4.78;1.30;;;5.60;70.70;;;;;;5018001;28;20025;-74
2023/03/29 02:01:16;;;;;;;3.08;1.77;;;5.40;71.10;;;;;;5024939;28;20025;-74
2023/03/29 02:03:46;;;;;;;2.85;1.25;;;5.30;71.80;;;;;;5031621;28;20132;-74
2023/03/29 02:06:15;;;;;;;4.22;1.45;;;5.20;72.40;;;;;;5025616;28;20087;-74
2023/03/29 02:08:43;;;;;;;3.45;1.30;;;5.30;70.90;;;;;;5018644;28;20041;-75
2023/03/29 02:11:09;;;;;;;2.45;1.30;;;5.50;69.90;;;;;;5023502;28;20056;-74
2023/03/29 02:13:35;;;;;;;3.55;1.73;;;5.50;69.30;;;;;;5027781;28;20029;-75
2023/03/29 02:16:08;;;;;;;3.65;1.58;;;5.70;70.00;;;;;;5027896;28;20108;-75
2023/03/29 02:18:34;;;;;;;3.08;1.40;;;5.80;68.70;;;;;;5022013;28;20076;-74
2023/03/29 02:21:00;;;;;;;3.90;1.58;;;5.90;67.20;;;;;;5030215;28;20100;-74
2023/03/29 02:23:44;;;;;;;3.90;1.30;;;5.80;68.40;;;;;;5022295;28;20411;-74
2023/03/29 02:26:10;;;;;;;2.80;1.30;;;5.70;69.50;;;;;;5021239;28;20041;-74
2023/03/29 02:28:36;;;;;;;3.45;1.60;;;5.70;72.30;;;;;;5021021;28;20030;-74
2023/03/29 02:31:14;;;;;;;3.47;1.77;;;5.70;72.00;;;;;;5021338;28;20385;-74
2023/03/29 02:33:44;;;;;;;4.13;1.90;;;5.80;71.30;;;;;;5023613;28;20132;-74
2023/03/29 02:36:41;;;;;;;2.92;1.70;;;6.00;71.10;;;;;;5034071;28;20447;-74
2023/03/29 02:39:09;;;;;;;3.88;1.65;;;5.80;70.50;;;;;;5017620;28;20391;-75
2023/03/29 02:41:37;;;;;;;3.53;1.73;;;5.80;71.40;;;;;;5023662;28;20022;-74
2023/03/29 02:44:06;;;;;;;3.85;1.30;;;5.70;71.30;;;;;;5033366;28;20049;-74
2023/03/29 02:46:32;;;;;;;2.60;1.38;;;5.70;70.20;;;;;;5022469;28;20086;-75
2023/03/29 02:48:59;;;;;;;3.78;1.25;;;5.90;67.10;;;;;;5027147;28;20155;-74
2023/03/29 02:51:31;;;;;;;2.55;1.15;;;5.80;67.90;;;;;;5023901;28;20475;-75
2023/03/29 02:54:24;;;;;;;3.85;1.48;;;5.60;69.70;;;;;;5028486;28;20034;-74
2023/03/29 02:57:02;;;;;;;2.72;1.40;;;5.50;71.10;;;;;;5019657;28;20045;-75
2023/03/29 02:59:32;;;;;;;3.60;1.60;;;5.60;71.30;;;;;;5023584;28;20129;-74
2023/03/29 03:01:58;;;;;;;2.67;1.50;;;5.80;69.60;;;;;;5021030;28;20115;-75
2023/03/29 03:04:24;;;;;;;6.70;1.83;;;6.00;68.50;;;;;;5024667;28;20574;-73
2023/03/29 03:06:50;;;;;;;4.53;1.67;;;5.90;70.90;;;;;;5022001;28;20638;-75
2023/03/29 03:09:16;;;;;;;2.30;1.25;;;5.60;70.50;;;;;;5030593;28;20059;-74
2023/03/29 03:11:43;;;;;;;4.03;1.33;;;5.60;70.60;;;;;;5023592;28;20053;-74
2023/03/29 03:14:09;;;;;;;3.05;1.40;;;5.50;72.00;;;;;;5023015;28;20367;-74
2023/03/29 03:16:35;;;;;;;4.55;1.85;;;5.30;70.90;;;;;;5020184;28;20037;-75
2023/03/29 03:19:02;;;;;;;2.42;1.20;;;5.20;70.70;;;;;;5016931;28;20029;-75
2023/03/29 03:21:28;;;;;;;3.72;1.45;;;5.10;71.40;;;;;;5020586;28;20144;-74
2023/03/29 03:23:54;;;;;;;3.88;1.52;;;4.80;72.30;;;;;;5018204;28;20025;-74
2023/03/29 03:26:21;;;;;;;3.50;1.50;;;4.50;74.30;;;;;;5015941;28;20022;-74
2023/03/29 03:28:47;;;;;;;5.15;1.60;;;4.70;73.10;;;;;;5015234;28;20041;-74
2023/03/29 03:31:13;;;;;;;4.97;2.15;;;4.90;72.00;;;;;;5019867;28;20052;-74
2023/03/29 03:33:40;;;;;;;4.22;1.63;;;4.70;72.80;;;;;;5021601;28;20041;-75
2023/03/29 03:36:07;;;;;;;3.70;1.30;;;4.70;71.80;;;;;;5018601;28;20454;-75
2023/03/29 03:38:33;;;;;;;3.53;1.40;;;4.80;71.50;;;;;;5019127;28;20125;-73
2023/03/29 03:41:00;;;;;;;1.88;1.00;;;5.00;69.90;;;;;;5019005;28;20537;-75
2023/03/29 03:43:26;;;;;;;4.25;1.50;;;5.30;69.40;;;;;;5023096;28;20053;-75
2023/03/29 03:45:51;;;;;;;3.53;1.60;;;5.40;68.20;;;;;;5018210;28;20379;-75
2023/03/29 03:48:17;;;;;;;2.85;1.30;;;5.30;69.50;;;;;;5021604;28;20499;-74
2023/03/29 03:50:51;;;;;;;2.78;1.42;;;5.00;70.70;;;;;;5022355;28;20075;-74
2023/03/29 03:53:17;;;;;;;2.95;1.30;;;5.30;68.20;;;;;;5025012;28;21942;-74
2023/03/29 03:55:51;;;;;;;3.85;1.58;;;5.10;70.90;;;;;;5016285;28;20057;-75
2023/03/29 03:58:18;;;;;;;4.43;2.00;;;4.80;71.70;;;;;;5020511;28;20029;-74
2023/03/29 04:00:46;;;;;;;3.65;1.45;;;4.70;71.90;;;;;;5019065;28;20111;-74
2023/03/29 04:03:12;;;;;;;4.05;1.20;;;4.80;72.00;;;;;;5027718;28;20037;-74
2023/03/29 04:05:43;;;;;;;3.67;1.75;;;4.80;71.40;;;;;;5021161;28;20064;-75
2023/03/29 04:08:11;;;;;;;4.53;1.70;;;4.80;71.90;;;;;;5025103;28;20038;-74
2023/03/29 04:10:37;;;;;;;4.93;1.75;;;4.60;73.20;;;;;;5021321;28;20026;-75
2023/03/29 04:13:06;;;;;;;4.75;1.35;;;4.30;74.90;;;;;;5018871;28;20111;-75
2023/03/29 04:15:40;;;;;;;3.53;1.70;;;4.50;72.90;;;;;;5013756;28;20037;-74
2023/03/29 04:18:06;;;;;;;4.53;2.15;;;4.80;71.20;;;;;;5016941;28;20080;-74
2023/03/29 04:20:32;;;;;;;3.47;1.60;;;4.80;71.50;;;;;;5033968;28;20087;-74
2023/03/29 04:22:58;;;;;;;4.15;1.30;;;4.50;72.40;;;;;;5019421;28;20033;-74
2023/03/29 04:25:24;;;;;;;3.38;1.25;;;4.50;72.10;;;;;;5016270;28;20038;-74
2023/03/29 04:27:50;;;;;;;6.72;2.15;;;4.40;72.40;;;;;;5021002;28;20037;-75
2023/03/29 04:30:16;;;;;;;4.15;1.75;;;4.30;73.20;;;;;;5028364;28;20033;-75
2023/03/29 04:32:41;;;;;;;4.22;1.63;;;4.30;73.40;;;;;;5022398;28;20037;-75
2023/03/29 04:35:09;;;;;;;2.72;1.40;;;4.30;72.80;;;;;;5016404;28;20037;-75
2023/03/29 04:37:35;;;;;;;3.25;1.27;;;4.10;73.70;;;;;;5022703;28;20025;-75
2023/03/29 04:40:03;;;;;;;2.25;1.33;;;4.30;73.30;;;;;;5017879;28;20443;-75
2023/03/29 04:42:29;;;;;;;4.57;2.08;;;4.30;73.40;;;;;;5017797;28;20103;-74
2023/03/29 04:44:56;;;;;;;3.60;1.83;;;4.30;73.30;;;;;;5018413;28;20418;-75
2023/03/29 04:47:22;;;;;;;3.53;1.85;;;4.30;73.80;;;;;;5018295;28;20071;-75
2023/03/29 04:49:47;;;;;;;4.10;1.60;;;4.50;73.50;;;;;;5019949;28;20445;-74
2023/03/29 04:52:13;;;;;;;5.63;2.00;;;4.50;73.60;;;;;;5021386;28;20040;-74
2023/03/29 04:54:39;;;;;;;4.57;2.03;;;4.60;73.40;;;;;;5020317;28;20384;-74
2023/03/29 04:57:06;;;;;;;2.25;1.27;;;4.70;73.20;;;;;;5018445;28;20043;-75
2023/03/29 04:59:32;;;;;;;5.88;2.00;;;4.50;74.20;;;;;;5015329;28;20396;-75
2023/03/29 05:01:59;;;;;;;4.18;2.08;;;4.50;75.00;;;;;;5019857;28;20043;-74
2023/03/29 05:04:27;;;;;;;4.43;1.80;;;4.50;74.20;;;;;;5025558;28;20029;-74
2023/03/29 05:06:53;;;;;;;3.45;1.58;;;4.50;74.40;;;;;;5017345;28;20498;-75
2023/03/29 05:09:18;;;;;;;3.45;1.55;;;4.90;71.80;;;;;;5017862;28;20129;-75
2023/03/29 05:11:44;;;;;;;2.75;1.40;;;5.00;69.70;;;;;;5018270;28;20048;-75
2023/03/29 05:14:10;;;;;;;4.35;1.80;;;5.00;70.80;;;;;;5017358;28;20030;-74
2023/03/29 05:16:36;;;;;;;2.28;1.13;;;4.90;70.20;;;;;;5016983;28;20072;-75
2023/03/29 05:19:03;;;;;;;2.72;1.40;;;5.00;68.60;;;;;;5016056;28;20711;-75
2023/03/29 05:21:28;;;;;;;2.28;1.13;;;5.00;69.60;;;;;;5023882;28;20112;-74
2023/03/29 05:23:54;;;;;;;2.88;1.20;;;4.90;68.80;;;;;;5019643;28;20117;-75
2023/03/29 05:26:21;;;;;;;3.28;1.30;;;5.00;69.60;;;;;;5011901;28;20038;-76
2023/03/29 05:28:48;;;;;;;3.38;1.40;;;4.70;71.60;;;;;;5014043;28;20103;-76
2023/03/29 05:31:14;;;;;;;2.22;1.13;;;4.80;70.60;;;;;;5017295;28;20052;-75
2023/03/29 05:33:39;;;;;;;5.63;2.35;;;4.80;69.70;;;;;;5020139;28;20430;-75
2023/03/29 05:36:12;;;;;;;3.72;1.48;;;5.10;72.20;;;;;;5019737;28;20033;-75
2023/03/29 05:38:40;;;;;;;2.85;1.40;;;4.60;72.80;;;;;;5023670;28;20083;-75
2023/03/29 05:41:06;;;;;;;5.22;1.60;;;4.60;71.70;;;;;;5023416;28;20137;-75
2023/03/29 05:43:32;;;;;;;4.57;1.45;;;4.50;72.60;;;;;;5030652;28;20119;-75
2023/03/29 05:45:59;;;;;;;5.47;1.63;;;4.50;72.50;;;;;;5027073;28;20022;-75
2023/03/29 05:48:25;;;;;;;4.95;2.67;;;4.40;73.90;;;;;;5024398;28;20375;-75
2023/03/29 05:50:53;;;;;;;3.95;1.75;;;4.40;73.30;;;;;;5025472;28;20025;-75
2023/03/29 05:53:21;;;;;;;3.60;1.70;;;4.50;73.70;;;;;;5031770;28;20036;-75
2023/03/29 05:55:46;;;;;;;2.35;1.02;;;4.50;73.00;;;;;;5022789;28;20033;-75
2023/03/29 05:58:13;;;;;;;2.10;1.00;;;4.80;71.80;;;;;;5031416;28;20036;-75
2023/03/29 06:00:40;;;;;;;2.80;1.08;;;4.90;70.70;;;;;;5023759;28;20033;-73
2023/03/29 06:03:09;;;;;;;3.13;1.30;;;4.90;71.20;;;;;;5030329;28;20087;-75
2023/03/29 06:05:35;;;;;;;3.08;1.27;;;4.90;70.80;;;;;;5022957;28;20056;-73
2023/03/29 06:08:01;;;;;;;3.80;1.63;;;5.00;69.80;;;;;;5029951;28;20064;-76
2023/03/29 06:10:27;;;;;;;2.28;0.82;;;5.20;69.30;;;;;;5024007;28;20040;-76
2023/03/29 06:12:53;;;;;;;2.15;0.95;;;5.50;66.80;;;;;;5022326;28;20120;-75
2023/03/29 06:15:20;;;;;;;3.45;1.10;;;5.50;66.90;;;;;;5022749;28;20025;-76
2023/03/29 06:17:46;;;;;;;2.50;1.23;;;5.50;67.60;;;;;;5022455;28;20112;-76
2023/03/29 06:20:12;;;;;;;2.22;1.15;;;5.30;69.80;;;;;;5022581;28;20140;-76
2023/03/29 06:22:39;;;;;;;3.35;1.33;;;5.20;70.40;;;;;;5021088;28;20065;-73
2023/03/29 06:25:07;;;;;;;4.32;1.10;;;5.10;72.50;;;;;;5020808;28;20064;-76
2023/03/29 06:27:32;;;;;;;2.03;0.80;;;5.10;72.80;;;;;;5020453;28;20132;-74
2023/03/29 06:29:59;;;;;;;1.92;0.90;;;5.10;71.90;;;;;;5018320;28;20353;-76
2023/03/29 06:32:25;;;;;;;4.82;1.33;;;5.30;69.40;;;;;;5006473;28;20747;-77
2023/03/29 06:34:51;;;;;;;3.40;1.27;;;5.30;70.40;;;;;;5006580;28;20038;-77
2023/03/29 06:37:17;;;;;;;3.28;1.30;;;5.20;70.40;;;;;;5005658;28;20036;-77
2023/03/29 06:39:43;;;;;;;3.10;0.85;;;5.60;67.70;;;;;;5017443;28;20606;-76
2023/03/29 06:42:09;;;;;;;2.65;0.80;;;5.80;67.70;;;;;;5017170;28;20033;-77
2023/03/29 06:44:35;;;;;;;3.30;0.98;;;6.00;67.60;;;;;;5019368;28;20025;-77
2023/03/29 06:47:00;;;;;;;5.57;1.73;;;6.10;67.60;;;;;;5011404;28;20026;-77
2023/03/29 06:49:26;;;;;;;1.95;0.98;;;6.10;67.50;;;;;;5020835;28;20043;-78
2023/03/29 06:51:53;;;;;;;2.53;0.95;;;6.10;68.00;;;;;;5022439;28;20033;-77
2023/03/29 06:54:19;;;;;;;3.53;0.88;;;6.30;68.10;;;;;;5014526;28;20583;-77
2023/03/29 06:56:46;;;;;;;1.55;0.75;;;6.30;68.40;;;;;;5009797;28;20029;-78
2023/03/29 06:59:12;;;;;;;2.47;1.00;;;6.30;69.30;;;;;;5025070;28;20028;-77
2023/03/29 07:01:38;;;;;;;2.10;1.00;;;6.40;69.20;;;;;;5009769;28;20409;-74
2023/03/29 07:04:07;;;;;;;3.88;0.90;;;6.40;70.00;;;;;;5017730;28;20021;-77
2023/03/29 07:06:35;;;;;;;2.80;1.00;;;6.50;70.30;;;;;;5016182;28;20037;-75
2023/03/29 07:09:04;;;;;;;2.28;0.95;;;6.60;70.40;;;;;;5019113;28;20124;-77
2023/03/29 07:11:30;;;;;;;3.80;1.17;;;6.80;70.90;;;;;;5010939;28;20022;-77
2023/03/29 07:13:56;;;;;;;3.53;1.30;;;8.70;67.90;;;;;;5018933;28;20468;-77
2023/03/29 07:16:21;;;;;;;2.47;1.17;;;9.60;66.40;;;;;;5023141;28;20067;-76
2023/03/29 07:18:47;;;;;;;3.78;0.98;;;9.30;67.40;;;;;;5022739;28;20025;-76
2023/03/29 07:21:13;;;;;;;4.97;1.30;;;8.30;69.50;;;;;;5023648;28;20790;-76
2023/03/29 07:23:39;;;;;;;3.05;1.20;;;7.50;70.10;;;;;;5025232;28;20072;-76
2023/03/29 07:26:09;;;;;;;2.10;0.88;;;7.10;70.70;;;;;;5026133;28;20091;-77
2023/03/29 07:28:42;;;;;;;3.85;1.13;;;7.00;71.20;;;;;;5024959;28;20057;-76
2023/03/29 07:31:10;;;;;;;2.33;0.70;;;7.00;71.20;;;;;;5026047;28;20116;-76
2023/03/29 07:33:36;;;;;;;3.25;1.17;;;7.10;71.70;;;;;;5024411;28;20121;-75
2023/03/29 07:36:03;;;;;;;3.22;0.90;;;7.20;72.00;;;;;;5025823;28;20028;-76
2023/03/29 07:38:30;;;;;;;5.82;1.15;;;7.10;71.80;;;;;;5022411;28;20017;-77
2023/03/29 07:40:56;;;;;;;3.40;0.90;;;7.20;72.40;;;;;;5024073;28;20043;-75
2023/03/29 07:43:23;;;;;;;5.05;0.90;;;7.30;73.00;;;;;;5022601;28;20057;-74
2023/03/29 07:45:50;;;;;;;2.30;0.90;;;7.30;72.60;;;;;;5020881;28;20028;-75
2023/03/29 07:48:16;;;;;;;3.63;1.02;;;7.30;72.70;;;;;;5012842;28;20128;-75
2023/03/29 07:50:43;;;;;;;5.28;1.60;;;7.40;73.60;;;;;;5020943;28;20033;-75
2023/03/29 07:53:09;;;;;;;1.60;0.80;;;7.60;73.40;;;;;;5019991;28;20044;-75
2023/03/29 07:55:35;;;;;;;2.35;0.82;;;7.50;72.70;;;;;;5020483;28;20030;-75
2023/03/29 07:58:03;;;;;;;5.40;1.10;;;7.50;73.00;;;;;;5018111;28;20075;-74
2023/03/29 08:00:28;;;;;;;3.40;1.65;;;7.60;73.60;;;;;;5017911;28;20044;-75
2023/03/29 08:02:54;;;;;;;5.03;1.00;;;7.60;72.70;;;;;;5020958;28;21016;-75
2023/03/29 08:05:21;;;;;;;1.92;0.90;;;7.70;73.80;;;;;;5019710;28;20083;-75
2023/03/29 08:07:48;;;;;;;2.42;1.10;;;7.70;72.90;;;;;;5021236;28;20095;-75
2023/03/29 08:10:19;;;;;;;3.90;1.02;;;7.70;72.20;;;;;;5020364;28;20026;-74
2023/03/29 08:12:49;;;;;;;4.55;1.48;;;7.60;71.80;;;;;;5018294;28;20133;-74
2023/03/29 08:15:15;;;;;;;5.57;1.40;;;7.70;73.00;;;;;;5021466;28;20656;-74
2023/03/29 08:17:41;;;;;;;4.22;1.13;;;7.80;72.50;;;;;;5020831;28;20037;-74
2023/03/29 08:20:10;;;;;;;3.13;1.48;;;7.80;71.90;;;;;;5020559;28;20021;-75
2023/03/29 08:22:36;;;;;;;2.38;1.25;;;7.80;71.80;;;;;;5019411;28;20032;-74
2023/03/29 08:25:03;;;;;;;3.60;1.00;;;8.00;72.60;;;;;;5017984;28;20118;-75
2023/03/29 08:27:29;;;;;;;3.42;1.52;;;8.00;72.10;;;;;;5021494;28;20124;-75
2023/03/29 08:29:55;;;;;;;5.00;1.30;;;8.20;73.10;;;;;;5023032;28;20039;-74
2023/03/29 08:32:21;;;;;;;3.10;1.23;;;8.10;74.10;;;;;;5022511;28;20025;-75
2023/03/29 08:34:47;;;;;;;2.83;1.27;;;8.30;74.70;;;;;;5023932;28;20025;-75
2023/03/29 08:37:13;;;;;;;3.33;1.20;;;8.20;73.50;;;;;;5022055;28;20056;-74
2023/03/29 08:39:39;;;;;;;3.50;1.27;;;8.30;73.80;;;;;;5022362;28;20033;-75
2023/03/29 08:42:30;;;;;;;3.75;1.67;;;8.40;75.70;;;;;;5023447;28;20026;-74
2023/03/29 08:45:37;;;;;;;4.05;1.48;;;8.50;74.50;;;;;;5022244;28;20091;-75
2023/03/29 08:48:21;;;;;;;3.00;1.30;;;8.50;75.20;;;;;;5021573;28;20057;-74
2023/03/29 08:50:53;;;;;;;4.30;1.30;;;8.50;75.10;;;;;;5021354;28;20109;-76
2023/03/29 08:53:31;;;;;;;2.28;1.17;;;8.70;75.90;;;;;;5021850;28;20471;-74
2023/03/29 08:56:01;;;;;;;4.20;1.55;;;8.70;76.00;;;;;;5022519;28;20028;-75
2023/03/29 08:58:31;;;;;;;5.05;1.20;;;8.80;76.50;;;;;;5023411;28;20029;-76
2023/03/29 09:01:02;;;;;;;2.95;1.08;;;9.00;76.90;;;;;;5023049;28;20022;-75
2023/03/29 09:03:33;;;;;;;8.25;1.38;;;9.10;76.00;;;;;;5021155;28;20037;-74
2023/03/29 09:06:06;;;;;;;2.20;1.15;;;9.20;76.00;;;;;;5021424;28;20034;-75
2023/03/29 09:08:38;;;;;;;3.03;1.42;;;9.20;76.00;;;;;;5022996;28;20041;-76
2023/03/29 09:11:19;;;;;;;3.88;1.40;;;9.30;76.90;;;;;;5023677;28;20029;-74
2023/03/29 09:14:07;;;;;;;4.45;1.52;;;10.00;76.10;;;;;;5026594;28;20702;-77
2023/03/29 09:16:36;;;;;;;6.53;1.30;;;13.60;71.90;;;;;;5026936;28;20037;-75
2023/03/29 09:19:13;;;;;;;3.80;1.20;;;14.20;69.30;;;;;;5024415;28;20025;-76
2023/03/29 09:21:45;;;;;;;4.65;1.40;;;15.40;69.40;;;;;;5026088;28;21172;-75
2023/03/29 09:24:23;;;;;;;4.07;1.30;;;15.60;67.00;;;;;;5023378;28;20416;-76
2023/03/29 09:27:23;;;;;;;3.92;1.40;;;15.30;67.40;;;;;;5025683;28;20399;-76
2023/03/29 09:30:25;;;;;;;3.95;1.30;;;16.00;68.60;;;;;;5025637;28;20133;-76
2023/03/29 09:33:04;;;;;;;3.17;1.50;;;16.30;66.60;;;;;;5018239;28;20043;-76
2023/03/29 09:35:43;;;;;;;4.05;1.80;;;16.40;65.70;;;;;;5025589;28;20040;-76
2023/03/29 09:38:13;;;;;;;3.58;1.40;;;16.60;65.80;;;;;;5023733;28;20076;-77
2023/03/29 09:40:43;;;;;;;7.25;1.60;;;17.10;65.90;;;;;;5026606;28;20037;-76
2023/03/29 09:43:14;;;;;;;3.60;1.50;;;16.50;67.20;;;;;;5025565;28;20052;-76
2023/03/29 09:45:40;;;;;;;4.03;1.45;;;16.40;66.00;;;;;;5025034;28;20515;-76
2023/03/29 09:48:12;;;;;;;4.93;1.35;;;16.60;67.80;;;;;;5025659;28;20045;-76
2023/03/29 09:50:47;;;;;;;5.15;1.48;;;16.30;67.40;;;;;;5027237;28;20112;-75
2023/03/29 09:53:17;;;;;;;3.40;1.88;;;16.80;67.10;;;;;;5026599;28;20538;-76
2023/03/29 09:55:45;;;;;;;7.35;1.50;;;16.60;65.70;;;;;;5026167;28;20021;-76
2023/03/29 09:58:17;;;;;;;6.28;1.60;;;17.00;66.20;;;;;;5025084;28;20029;-76
2023/03/29 10:00:44;;;;;;;4.80;1.45;;;16.00;66.40;;;;;;5026351;28;20132;-75
2023/03/29 10:03:20;;;;;;;4.10;1.48;;;13.60;68.10;;;;;;5025875;28;20472;-75
2023/03/29 10:05:51;;;;;;;7.35;1.73;;;12.00;68.90;;;;;;5025113;28;20557;-78
2023/03/29 10:08:29;;;;;;;5.45;2.25;;;11.60;71.70;;;;;;5025200;28;20037;-76
2023/03/29 10:10:59;;;;;;;5.38;1.85;;;11.50;72.20;;;;;;5022379;28;20061;-76
2023/03/29 10:13:30;;;;;;;2.60;1.30;;;11.60;71.80;;;;;;5023685;28;20079;-76
2023/03/29 10:16:08;;;;;;;4.65;1.80;;;11.60;71.00;;;;;;5024149;28;20034;-77
2023/03/29 10:18:40;;;;;;;4.40;1.65;;;11.80;71.50;;;;;;5023810;28;20525;-77
2023/03/29 10:21:10;;;;;;;3.92;1.80;;;11.80;71.30;;;;;;5025749;28;20069;-76
2023/03/29 10:23:37;;;;;;;7.10;1.98;;;11.80;69.20;;;;;;5024779;28;20036;-76
2023/03/29 10:26:08;;;;;;;4.13;1.90;;;11.70;69.80;;;;;;5025397;28;20041;-76
2023/03/29 10:28:36;;;;;;;4.38;2.22;;;11.90;71.40;;;;;;5023966;28;20160;-76
2023/03/29 10:31:04;;;;;;;6.25;4.55;;;12.10;70.80;;;;;;5024649;28;20057;-76
2023/03/29 10:33:33;;;;;;;10.45;2.97;;;12.30;70.40;;;;;;5025676;28;20065;-76
2023/03/29 10:36:02;;;;;;;4.10;1.90;;;12.60;70.20;;;;;;5024674;28;20112;-76
2023/03/29 10:38:29;;;;;;;5.65;1.80;;;12.70;69.50;;;;;;5024559;28;20026;-76
2023/03/29 10:41:04;;;;;;;2.85;1.50;;;12.60;69.60;;;;;;5024476;28;20030;-74
2023/03/29 10:43:50;;;;;;;4.50;1.90;;;12.70;68.50;;;;;;5022241;28;20056;-77
2023/03/29 10:46:20;;;;;;;4.57;2.05;;;12.70;68.50;;;;;;5022739;28;20029;-76
2023/03/29 10:48:54;;;;;;;4.93;2.03;;;12.60;68.30;;;;;;5025362;28;20065;-77
2023/03/29 10:51:20;;;;;;;6.25;1.88;;;13.00;67.00;;;;;;5024931;28;20029;-76
2023/03/29 10:53:46;;;;;;;4.32;1.73;;;13.30;67.40;;;;;;5024001;28;20534;-76
2023/03/29 10:56:30;;;;;;;3.92;2.08;;;13.00;67.90;;;;;;5025066;28;20045;-76
2023/03/29 10:59:29;;;;;;;5.13;2.75;;;13.20;67.70;;;;;;5024495;28;20033;-76
2023/03/29 11:02:04;;;;;;;5.82;2.45;;;13.30;67.80;;;;;;5021642;28;20056;-76
2023/03/29 11:04:38;;;;;;;5.30;2.22;;;13.20;66.80;;;;;;5024753;28;20087;-76
2023/03/29 11:07:07;;;;;;;;;;;13.40;67.80;;;;;;5024540;28;20029;-75
2023/03/29 11:09:54;;;;;;;4.55;2.33;;;13.60;68.00;;;;;;5023973;28;19909;-76
2023/03/29 11:12:38;;;;;;;5.13;2.00;;;13.60;64.60;;;;;;5023920;28;20104;-76
2023/03/29 11:15:30;;;;;;;6.78;3.38;;;13.70;64.90;;;;;;5024259;28;20088;-76
2023/03/29 11:18:49;;;;;;;4.35;2.33;;;14.00;64.50;;;;;;5023476;28;20427;-76
2023/03/29 11:22:02;;;;;;;5.18;2.22;;;13.60;64.30;;;;;;4988103;28;20052;-77
2023/03/29 11:24:46;;;;;;;5.78;2.25;;;13.30;64.10;;;;;;4969042;28;20046;-77
2023/03/29 11:27:26;;;;;;;5.30;2.42;;;13.90;66.60;;;;;;5023810;28;20053;-76
2023/03/29 11:30:01;;;;;;;2.92;1.80;;;14.00;65.70;;;;;;5023899;28;20493;-76
2023/03/29 11:32:56;;;;;;;4.38;2.53;;;13.90;64.40;;;;;;5023361;28;20115;-75
2023/03/29 11:35:28;;;;;;;3.97;1.90;;;14.20;65.60;;;;;;5021239;28;20129;-75
2023/03/29 11:38:22;;;;;;;4.85;2.17;;;14.40;65.40;;;;;;5024066;28;20627;-76
2023/03/29 11:41:07;;;;;;;6.60;2.83;;;14.20;63.40;;;;;;5022550;28;20030;-76
2023/03/29 11:43:44;;;;;;;4.32;2.65;;;14.50;65.40;;;;;;5013553;28;20065;-75
2023/03/29 11:46:16;;;;;;;5.03;1.98;;;14.60;64.70;;;;;;5017606;28;20040;-77
2023/03/29 11:49:04;;;;;;;5.95;2.67;;;14.70;65.40;;;;;;5017653;28;20029;-76
2023/03/29 11:51:54;;;;;;;4.70;2.35;;;14.40;63.80;;;;;;5009961;28;20054;-76
2023/03/29 11:54:35;;;;;;;3.85;2.40;;;14.50;66.30;;;;;;5016085;28;20200;-76
2023/03/29 11:57:06;;;;;;;5.25;2.40;;;14.50;66.00;;;;;;5016740;28;20032;-75
2023/03/29 11:59:35;;;;;;;6.85;2.75;;;14.50;64.80;;;;;;5016987;28;20086;-75
2023/03/29 12:02:33;;;;;;;5.13;2.65;;;15.00;64.50;;;;;;5016852;28;20475;-75
2023/03/29 12:05:09;;;;;;;4.93;2.42;;;14.50;64.30;;;;;;5013394;28;20029;-75
2023/03/29 12:07:43;;;;;;;11.27;2.97;;;14.90;65.00;;;;;;5014806;28;20132;-76
2023/03/29 12:10:27;;;;;;;7.22;2.35;;;15.20;65.40;;;;;;5016784;28;20033;-75
2023/03/29 12:13:10;;;;;;;7.20;2.63;;;15.20;64.90;;;;;;5012081;28;20034;-76
2023/03/29 12:15:42;;;;;;;6.57;2.45;;;15.30;64.70;;;;;;5016066;28;20075;-76
2023/03/29 12:18:33;;;;;;;5.10;2.65;;;15.50;65.60;;;;;;5011859;28;20029;-76
2023/03/29 12:21:02;;;;;;;6.47;2.83;;;15.70;65.80;;;;;;5010583;28;20025;-77
2023/03/29 12:23:30;;;;;;;6.38;2.53;;;15.60;64.30;;;;;;5017620;28;20029;-77
2023/03/29 12:26:22;;;;;;;5.88;3.00;;;15.40;63.90;;;;;;5007809;28;20094;-78
2023/03/29 12:28:59;;;;;;;5.05;2.70;;;15.30;64.30;;;;;;5019030;28;20721;-77
2023/03/29 12:31:49;;;;;;;3.72;2.13;;;15.20;64.90;;;;;;5013146;28;20470;-77
2023/03/29 12:34:18;;;;;;;5.78;2.50;;;15.20;63.10;;;;;;5012827;28;20116;-77
2023/03/29 12:36:50;;;;;;;4.85;2.70;;;15.30;64.90;;;;;;5007658;28;20022;-76
2023/03/29 12:39:19;;;;;;;5.07;2.45;;;15.30;63.70;;;;;;5014670;28;20033;-78
2023/03/29 12:41:47;;;;;;;5.82;2.30;;;15.00;63.30;;;;;;5016070;28;20052;-78
2023/03/29 12:44:21;;;;;;;4.85;2.88;;;15.10;64.40;;;;;;5011562;28;20073;-77
2023/03/29 12:46:52;;;;;;;12.00;2.90;;;15.30;64.50;;;;;;5009053;28;20037;-77
2023/03/29 12:49:23;;;;;;;5.78;3.00;;;15.80;65.70;;;;;;5016570;28;20063;-78
2023/03/29 12:51:50;;;;;;;4.25;2.60;;;15.70;63.80;;;;;;5016218;28;20052;-78
2023/03/29 12:54:21;;;;;;;9.25;3.35;;;16.10;65.60;;;;;;5018135;28;20132;-76
2023/03/29 12:56:59;;;;;;;7.90;2.53;;;16.20;66.10;;;;;;5023601;28;20549;-76
2023/03/29 13:00:03;;;;;;;5.78;2.88;;;16.30;63.50;;;;;;5022322;28;20041;-76
2023/03/29 13:02:35;;;;;;;5.45;2.80;;;16.00;63.70;;;;;;5019224;28;20904;-77
2023/03/29 13:05:03;;;;;;;5.72;2.67;;;16.10;64.50;;;;;;5025138;28;20033;-77
2023/03/29 13:07:46;;;;;;;5.20;2.65;;;16.00;63.80;;;;;;5024158;28;20033;-79
2023/03/29 13:10:35;;;;;;;4.63;2.80;;;16.10;63.90;;;;;;5022783;28;20052;-76
2023/03/29 13:13:17;;;;;;;4.97;2.95;;;15.80;62.70;;;;;;5023465;28;20029;-75
2023/03/29 13:15:44;;;;;;;4.32;2.78;;;15.60;62.60;;;;;;5023323;28;20479;-73
2023/03/29 13:18:27;;;;;;;5.45;2.90;;;15.80;64.10;;;;;;5023840;28;20064;-75